createdAt,value
2023-02-11T07:01:52.679Z,102180.56
2023-02-11T07:04:55.488Z,102183.00
2023-02-11T07:07:57.934Z,102181.31
2023-02-11T07:11:00.956Z,102172.59
2023-02-11T07:14:05.300Z,102167.47
2023-02-11T07:17:09.313Z,102161.44
2023-02-11T07:20:14.520Z,102166.44
2023-02-11T07:23:17.260Z,102169.16
2023-02-11T07:26:23.014Z,102174.31
2023-02-11T07:29:25.733Z,102181.91
2023-02-11T07:32:29.467Z,102185.31
2023-02-11T07:35:31.921Z,102175.87
2023-02-11T07:38:34.467Z,102178.47
2023-02-11T07:41:38.153Z,102175.78
2023-02-11T07:44:41.165Z,102176.63
2023-02-11T07:47:45.806Z,102187.69
2023-02-11T07:50:48.214Z,102184.19
2023-02-11T07:53:51.012Z,102169.22
2023-02-11T07:56:53.490Z,102156.06
2023-02-11T07:59:56.156Z,102158.44
2023-02-11T08:02:59.963Z,102154.63
2023-02-11T08:06:03.732Z,102157.06
2023-02-11T08:09:07.041Z,102153.53
2023-02-11T08:12:09.837Z,102138.69
2023-02-11T08:15:12.340Z,102147.81
2023-02-11T08:18:16.369Z,102157.94
2023-02-11T08:21:18.855Z,102155.78
2023-02-11T08:24:21.654Z,102149.59
2023-02-11T08:27:24.142Z,102142.97
2023-02-11T08:30:27.637Z,102152.06
2023-02-11T08:33:31.442Z,102149.81
2023-02-11T08:36:34.433Z,102137.41
2023-02-11T08:39:36.676Z,102143.88
2023-02-11T08:42:39.359Z,102142.41
2023-02-11T08:45:41.774Z,102142.66
2023-02-11T08:48:46.098Z,102141.03
2023-02-11T08:51:48.326Z,102134.50
2023-02-11T08:54:51.169Z,102131.06
2023-02-11T08:57:59.300Z,102137.94
2023-02-11T09:01:02.143Z,102126.62
2023-02-11T09:04:05.965Z,102133.38
2023-02-11T09:07:08.418Z,102133.09
2023-02-11T09:10:10.804Z,102129.41
2023-02-11T09:13:13.493Z,102128.37
2023-02-11T09:16:17.278Z,102124.72
2023-02-11T09:19:21.137Z,102116.56
2023-02-11T09:22:23.407Z,102122.59
2023-02-11T09:25:26.178Z,102117.06
2023-02-11T09:28:28.607Z,102121.87
2023-02-11T09:31:32.095Z,102116.59
2023-02-11T09:34:38.135Z,102108.19
2023-02-11T09:37:40.503Z,102107.38
2023-02-11T09:40:43.202Z,102101.16
2023-02-11T09:43:46.530Z,102101.50
2023-02-11T09:46:53.356Z,102096.28
2023-02-11T09:50:00.284Z,102084.84
2023-02-11T09:53:03.821Z,102080.69
2023-02-11T09:56:10.661Z,102085.72
2023-02-11T09:59:13.729Z,102091.47
2023-02-11T10:02:19.672Z,102085.00
2023-02-11T10:05:31.778Z,102078.03
2023-02-11T10:08:38.178Z,102083.66
2023-02-11T10:11:48.045Z,102078.47
2023-02-11T10:15:13.545Z,102073.50
2023-02-11T10:18:38.671Z,102062.47
2023-02-11T10:21:47.781Z,102059.69
2023-02-11T10:24:52.318Z,102050.66
2023-02-11T10:27:56.960Z,102046.94
2023-02-11T10:31:01.080Z,102037.09
2023-02-11T10:34:04.807Z,102032.25
2023-02-11T10:37:09.221Z,102035.53
2023-02-11T10:40:13.917Z,102032.25
2023-02-11T10:43:17.522Z,102039.87
2023-02-11T10:46:22.286Z,102027.75
2023-02-11T10:49:34.575Z,102020.53
2023-02-11T10:52:38.282Z,102014.78
2023-02-11T10:55:42.123Z,102020.47
2023-02-11T10:58:45.391Z,102011.62
2023-02-11T11:01:49.619Z,101999.84
2023-02-11T11:04:54.274Z,101988.19
2023-02-11T11:07:59.369Z,101990.28
2023-02-11T11:11:03.851Z,101985.09
2023-02-11T11:14:13.241Z,101984.72
2023-02-11T11:17:17.914Z,101975.13
2023-02-11T11:20:23.327Z,101978.66
2023-02-11T11:23:27.245Z,101970.94
2023-02-11T11:26:38.852Z,101967.59
2023-02-11T11:29:44.014Z,101960.94
2023-02-11T11:32:46.716Z,101953.66
2023-02-11T11:35:57.604Z,101947.41
2023-02-11T11:39:04.037Z,101939.59
2023-02-11T11:42:27.286Z,101931.75
2023-02-11T11:45:29.946Z,101941.06
2023-02-11T11:48:34.304Z,101930.38
2023-02-11T11:51:39.163Z,101925.00
2023-02-11T11:54:43.139Z,101904.63
2023-02-11T11:57:45.844Z,101903.88
2023-02-11T12:00:54.584Z,101909.94
2023-02-11T12:04:22.320Z,101901.22
2023-02-11T12:07:31.284Z,101894.13
2023-02-11T12:10:50.419Z,101871.72
2023-02-11T12:14:00.172Z,101884.03
2023-02-11T12:17:04.861Z,101882.19
2023-02-11T12:20:26.493Z,101867.78
2023-02-11T12:23:36.977Z,101864.66
2023-02-11T12:26:43.020Z,101854.91
2023-02-11T12:29:53.505Z,101855.59
2023-02-11T12:32:59.169Z,101852.25
2023-02-11T12:36:03.820Z,101843.50
2023-02-11T12:39:12.406Z,101827.25
2023-02-11T12:42:43.332Z,101832.06
2023-02-11T12:46:17.953Z,101824.16
2023-02-11T12:49:26.747Z,101808.28
2023-02-11T12:52:36.003Z,101813.25
2023-02-11T12:55:40.019Z,101799.06
2023-02-11T12:58:45.705Z,101805.06
2023-02-11T13:01:48.619Z,101789.81
2023-02-11T13:04:53.316Z,101791.97
2023-02-11T13:07:58.679Z,101788.63
2023-02-11T13:11:02.348Z,101788.31
2023-02-11T13:14:07.888Z,101787.91
2023-02-11T13:17:16.037Z,101799.37
2023-02-11T13:20:24.883Z,101781.38
2023-02-11T13:23:31.774Z,101790.19
2023-02-11T13:26:39.513Z,101787.19
2023-02-11T13:30:21.332Z,101786.00
2023-02-11T13:33:34.970Z,101769.31
2023-02-11T13:36:37.401Z,101754.88
2023-02-11T13:39:40.054Z,101749.53
2023-02-11T13:42:48.930Z,101745.50
2023-02-11T13:45:53.613Z,101737.94
2023-02-11T13:48:56.127Z,101726.28
2023-02-11T13:51:59.056Z,101712.75
2023-02-11T13:55:04.875Z,101719.16
2023-02-11T13:58:37.221Z,101730.97
2023-02-11T14:01:42.757Z,101733.19
2023-02-11T14:05:28.129Z,101742.00
2023-02-11T14:08:49.124Z,101734.75
2023-02-11T14:11:52.234Z,101736.50
2023-02-11T14:15:02.523Z,101740.16
2023-02-11T14:18:35.966Z,101746.84
2023-02-11T14:21:40.347Z,101747.12
2023-02-11T14:24:48.496Z,101739.44
2023-02-11T14:27:57.065Z,101740.72
2023-02-11T14:31:03.182Z,101726.28
2023-02-11T14:34:14.556Z,101717.50
2023-02-11T14:37:22.878Z,101712.78
2023-02-11T14:40:28.158Z,101714.81
2023-02-11T14:43:33.372Z,101722.22
2023-02-11T14:46:35.806Z,101721.97
2023-02-11T14:49:39.422Z,101730.84
2023-02-11T14:52:43.182Z,101734.50
2023-02-11T14:55:47.205Z,101743.91
2023-02-11T14:58:51.917Z,101741.19
2023-02-11T15:01:54.937Z,101744.81
2023-02-11T15:05:16.336Z,101742.00
2023-02-11T15:08:20.431Z,101743.59
2023-02-11T15:11:23.715Z,101735.06
2023-02-11T15:14:27.503Z,101725.00
2023-02-11T15:17:30.691Z,101702.72
2023-02-11T15:20:33.505Z,101693.34
2023-02-11T15:23:37.360Z,101694.84
2023-02-11T15:26:39.767Z,101676.72
2023-02-11T15:29:43.274Z,101688.66
2023-02-11T15:32:46.050Z,101681.25
